Time;durP1;ratioP1;P1;durP2;ratioP2;P2;SDS_P1;SDS_P2;PMS_P1;PMS_P2;Temp;Humidity;BMP_temperature;BMP_pressure;BME280_temperature;BME280_humidity;BME280_pressure;Samples;Min_cycle;Max_cycle;Signal;HPM_P1;HPM_P2
2021/12/02 10:12:41;;;;;;;0.60;0.60;;;;;;;3.83;100.00;97300.75;5187393;27;1356684;-80
2021/12/02 10:15:13;;;;;;;0.80;0.80;;;;;;;4.25;100.00;97291.22;5192801;27;40132;-80
2021/12/02 10:17:44;;;;;;;0.70;0.70;;;;;;;4.74;100.00;97311.72;5173672;27;40715;-78
2021/12/02 10:20:34;;;;;;;0.50;0.50;;;;;;;5.05;98.42;97311.44;5180492;27;42762;-77
2021/12/02 10:23:12;;;;;;;0.50;0.50;;;;;;;5.35;94.74;97306.81;5171467;27;43234;-79
2021/12/02 10:25:44;;;;;;;1.70;0.50;;;;;;;5.57;92.06;97302.72;5154788;27;39117;-79
2021/12/02 10:28:15;;;;;;;0.70;0.70;;;;;;;5.73;90.78;97311.28;5167410;27;41349;-79
2021/12/02 10:30:44;;;;;;;0.67;0.67;;;;;;;5.80;89.71;97298.59;5184688;27;42921;-78
2021/12/02 10:33:13;;;;;;;0.90;0.77;;;;;;;5.75;88.35;97293.63;5189614;27;43122;-79
2021/12/02 10:35:42;;;;;;;0.87;0.87;;;;;;;5.96;87.63;97307.09;5189240;27;40008;-79
2021/12/02 10:38:38;;;;;;;0.63;0.60;;;;;;;6.12;87.11;97328.75;5189819;27;41958;-77
2021/12/02 10:41:08;;;;;;;0.43;0.43;;;;;;;6.20;86.35;97315.91;5168869;27;43396;-78
2021/12/02 10:44:05;;;;;;;0.50;0.50;;;;;;;6.31;85.89;97328.31;5171083;27;42107;-77
2021/12/02 10:46:34;;;;;;;1.50;0.70;;;;;;;6.38;85.18;97321.69;5202816;27;40178;-77
2021/12/02 10:49:02;;;;;;;0.60;0.60;;;;;;;6.46;85.26;97317.56;5192972;27;41860;-78
2021/12/02 10:51:38;;;;;;;0.40;0.40;;;;;;;6.41;84.66;97303.09;5173552;27;42822;-78
2021/12/02 10:54:08;;;;;;;0.73;0.63;;;;;;;6.54;84.16;97314.41;5190634;27;40880;-79
2021/12/02 10:56:38;;;;;;;0.93;0.83;;;;;;;6.53;83.79;97307.47;5191855;27;38965;-79
2021/12/02 10:59:42;;;;;;;0.43;0.43;;;;;;;6.51;83.51;97311.16;5174815;27;40487;-79
2021/12/02 11:02:17;;;;;;;0.60;0.50;;;;;;;6.49;83.02;97317.38;5192279;27;42971;-81
2021/12/02 11:04:47;;;;;;;0.90;0.60;;;;;;;6.52;83.13;97311.06;5170268;27;40782;-81
2021/12/02 11:07:22;;;;;;;1.30;0.73;;;;;;;6.55;82.78;97310.84;5170757;27;39948;-79
2021/12/02 11:09:51;;;;;;;0.50;0.50;;;;;;;6.56;83.09;97306.41;5181904;27;40951;-83
2021/12/02 11:12:22;;;;;;;0.30;0.30;;;;;;;6.71;82.44;97310.56;5193812;27;43034;-79
2021/12/02 11:15:12;;;;;;;0.77;0.70;;;;;;;6.71;82.49;97306.16;5192054;27;41945;-80
2021/12/02 11:17:47;;;;;;;1.60;1.50;;;;;;;6.88;82.32;97322.53;5188521;27;40137;-79
2021/12/02 11:20:19;;;;;;;3.77;3.07;;;;;;;6.89;82.78;97304.00;5170992;27;40652;-82
2021/12/02 11:22:49;;;;;;;10.67;8.27;;;;;;;6.94;84.86;97299.22;5162928;27;42403;-81
2021/12/02 11:25:16;;;;;;;6.60;5.67;;;;;;;7.25;85.77;97311.00;5163117;27;42349;-78
2021/12/02 11:27:47;;;;;;;3.63;2.37;;;;;;;7.66;84.76;97317.63;5175780;27;39983;-80
2021/12/02 11:30:19;;;;;;;11.70;5.73;;;;;;;7.89;84.70;97300.91;5166940;27;40891;-80
2021/12/02 11:32:53;;;;;;;3.90;2.40;;;;;;;7.79;81.93;97284.13;5177481;27;42699;-82
2021/12/02 11:35:28;;;;;;;3.63;2.00;;;;;;;8.03;80.18;97324.41;5154894;27;42247;-78
2021/12/02 11:38:02;;;;;;;1.00;0.77;;;;;;;7.96;78.75;97317.91;5175563;27;38884;-87
2021/12/02 11:40:32;;;;;;;0.90;0.60;;;;;;;8.02;78.17;97316.63;5161808;27;40590;-83
2021/12/02 11:43:00;;;;;;;0.60;0.60;;;;;;;7.93;77.90;97303.16;5195896;27;43771;-81
2021/12/02 11:45:32;;;;;;;0.77;0.77;;;;;;;8.06;78.08;97321.50;5177768;27;41955;-81
2021/12/02 11:48:00;;;;;;;0.87;0.70;;;;;;;8.09;78.07;97321.28;5160942;27;39558;-81
2021/12/02 11:50:29;;;;;;;0.70;0.70;;;;;;;8.08;77.70;97316.97;5195793;27;41638;-80
2021/12/02 11:52:57;;;;;;;1.03;0.70;;;;;;;8.07;77.76;97320.56;5177010;27;42937;-81
2021/12/02 11:55:27;;;;;;;1.00;0.90;;;;;;;8.07;77.62;97320.56;5177684;27;43110;-81
2021/12/02 11:57:56;;;;;;;0.70;0.63;;;;;;;8.03;77.12;97323.56;5139765;27;39112;-81
2021/12/02 12:00:26;;;;;;;3.03;0.60;;;;;;;7.94;77.03;97320.66;5159274;27;41024;-81
2021/12/02 12:03:00;;;;;;;0.87;0.70;;;;;;;7.83;77.02;97314.53;5195551;27;43721;-84
2021/12/02 12:05:31;;;;;;;0.60;0.60;;;;;;;7.83;77.53;97328.53;5177432;27;42115;-79
2021/12/02 12:07:59;;;;;;;1.27;0.50;;;;;;;7.79;77.81;97331.53;5166827;27;39060;-80
2021/12/02 12:10:33;;;;;;;0.50;0.50;;;;;;;7.70;78.03;97319.03;5182703;27;41028;-81
2021/12/02 12:13:15;;;;;;;0.67;0.67;;;;;;;7.77;77.84;97328.19;5163542;27;43402;-80
2021/12/02 12:15:45;;;;;;;1.13;1.03;;;;;;;7.65;77.58;97303.59;5161467;27;41157;-82
2021/12/02 12:18:22;;;;;;;0.70;0.70;;;;;;;7.72;77.30;97327.69;5139972;27;38904;-80
2021/12/02 12:21:01;;;;;;;0.90;0.63;;;;;;;7.72;77.66;97320.63;5155776;27;41031;-79
2021/12/02 12:23:36;;;;;;;0.80;0.80;;;;;;;7.84;77.30;97324.94;5173323;27;43137;-81
2021/12/02 12:26:31;;;;;;;0.87;0.87;;;;;;;8.03;75.97;97331.47;5192123;27;43068;-80
2021/12/02 12:29:20;;;;;;;0.97;0.97;;;;;;;8.20;75.15;97338.91;5177412;27;39677;-80
2021/12/02 12:32:28;;;;;;;1.07;1.00;;;;;;;8.30;75.16;97340.72;5146772;27;40719;-79
2021/12/02 12:35:05;;;;;;;1.00;0.90;;;;;;;8.26;74.94;97328.75;5141312;27;41937;-79
2021/12/02 12:40:32;;;;;;;1.50;1.27;;;;;;;8.20;74.32;97320.44;5157588;27;40877;-80
2021/12/02 12:43:32;;;;;;;0.40;0.40;;;;;;;8.25;74.37;97334.97;5155997;27;41609;-79
2021/12/02 12:46:13;;;;;;;0.90;0.90;;;;;;;8.23;74.35;97326.34;5140409;27;43023;-81
2021/12/02 12:48:41;;;;;;;1.07;0.80;;;;;;;8.22;74.71;97318.53;5174848;27;42310;-78
2021/12/02 12:51:30;;;;;;;1.50;0.60;;;;;;;8.19;74.81;97327.53;5174227;27;40626;-79
2021/12/02 12:53:59;;;;;;;0.50;0.50;;;;;;;8.14;74.77;97323.59;5177281;27;41555;-81
2021/12/02 12:56:32;;;;;;;0.60;0.60;;;;;;;8.13;74.73;97320.09;5194191;27;42045;-81
2021/12/02 12:59:24;;;;;;;1.07;1.00;;;;;;;8.05;74.50;97334.81;5164925;27;42020;-81
2021/12/02 13:01:58;;;;;;;0.70;0.70;;;;;;;8.00;75.10;97340.44;5173916;27;40026;-81
2021/12/02 13:04:27;;;;;;;0.67;0.63;;;;;;;7.81;75.50;97330.44;5191653;27;41608;-82
2021/12/02 13:07:05;;;;;;;0.83;0.70;;;;;;;7.70;75.10;97342.75;5177010;27;43657;-81
2021/12/02 13:09:46;;;;;;;0.70;0.60;;;;;;;7.38;74.87;97346.00;5187872;27;42371;-77
2021/12/02 13:12:18;;;;;;;0.47;0.47;;;;;;;7.17;74.11;97352.84;5178909;27;40407;-80
2021/12/02 13:14:47;;;;;;;0.50;0.50;;;;;;;7.05;74.78;97361.59;5186529;27;43340;-82
2021/12/02 13:17:38;;;;;;;0.40;0.40;;;;;;;6.92;74.97;97361.69;5217718;27;42662;-84
2021/12/02 13:20:22;;;;;;;0.73;0.60;;;;;;;6.75;75.48;97348.88;5197767;27;43578;-86
2021/12/02 13:23:25;;;;;;;0.33;0.33;;;;;;;6.73;75.90;97362.13;5182480;27;39741;-83
2021/12/02 13:25:57;;;;;;;0.47;0.47;;;;;;;6.71;75.96;97358.75;5199410;27;41924;-82
2021/12/02 13:28:28;;;;;;;0.60;0.60;;;;;;;6.75;75.84;97360.22;5188965;27;42855;-80
2021/12/02 13:30:57;;;;;;;1.13;0.53;;;;;;;6.76;76.23;97351.41;5150929;27;42222;-80
2021/12/02 13:33:33;;;;;;;0.50;0.50;;;;;;;6.89;76.12;97353.16;5164513;27;40921;-78
2021/12/02 13:36:01;;;;;;;0.97;0.60;;;;;;;6.89;75.71;97350.53;5137767;27;40834;-78
2021/12/02 13:38:28;;;;;;;1.00;0.80;;;;;;;6.92;75.56;97352.94;5154615;27;43080;-79
2021/12/02 13:41:11;;;;;;;1.90;0.70;;;;;;;6.87;75.26;97355.03;5167262;27;41130;-79
2021/12/02 13:44:02;;;;;;;0.80;0.70;;;;;;;6.83;75.07;97363.16;5194187;27;40153;-79
2021/12/02 13:46:43;;;;;;;0.70;0.70;;;;;;;6.76;75.06;97361.91;5175109;27;41852;-80
2021/12/02 13:49:14;;;;;;;0.70;0.70;;;;;;;6.80;74.84;97368.63;5178321;27;42777;-81
2021/12/02 13:54:31;;;;;;;0.73;0.73;;;;;;;6.85;75.77;97369.16;5152259;27;38899;-79
2021/12/02 13:57:22;;;;;;;0.93;0.80;;;;;;;6.84;75.16;97377.16;5175590;27;40156;-80
2021/12/02 13:59:57;;;;;;;0.97;0.97;;;;;;;6.74;74.97;97384.84;5157303;27;41870;-78
2021/12/02 14:02:26;;;;;;;1.60;0.97;;;;;;;6.74;75.37;97384.00;5185964;27;42110;-78
2021/12/02 14:04:54;;;;;;;0.60;0.60;;;;;;;6.72;74.94;97389.38;5162048;27;39159;-80
2021/12/02 14:07:24;;;;;;;0.87;0.80;;;;;;;6.63;74.74;97387.41;5157259;27;40896;-79
2021/12/02 14:09:54;;;;;;;0.90;0.70;;;;;;;6.60;74.79;97390.25;5174227;27;41864;-79
2021/12/02 14:12:28;;;;;;;0.60;0.60;;;;;;;6.52;75.35;97392.56;5153154;27;42507;-79
2021/12/02 14:15:01;;;;;;;0.70;0.70;;;;;;;6.35;75.35;97392.88;5172502;27;39884;-78
2021/12/02 14:17:32;;;;;;;0.70;0.63;;;;;;;6.34;75.67;97413.06;5153542;27;41981;-79
2021/12/02 14:20:11;;;;;;;0.90;0.90;;;;;;;6.26;75.97;97409.28;5161168;27;42437;-79
2021/12/02 14:22:43;;;;;;;1.10;1.00;;;;;;;6.15;75.84;97417.06;5158823;27;42250;-78
2021/12/02 14:25:12;;;;;;;0.70;0.70;;;;;;;6.02;76.16;97422.31;5173933;27;38872;-79
2021/12/02 14:27:45;;;;;;;0.60;0.60;;;;;;;5.93;76.39;97431.66;5175021;27;40959;-78
2021/12/02 14:30:15;;;;;;;0.70;0.70;;;;;;;5.81;76.46;97428.97;5167486;27;41843;-78
2021/12/02 14:32:46;;;;;;;0.90;0.80;;;;;;;5.73;76.54;97439.97;5155075;27;43230;-80
2021/12/02 14:35:15;;;;;;;1.00;1.00;;;;;;;5.57;76.86;97423.50;5170109;27;39851;-80
2021/12/02 14:37:46;;;;;;;1.73;0.90;;;;;;;5.54;76.82;97432.47;5189067;27;42912;-82
2021/12/02 14:40:35;;;;;;;0.70;0.70;;;;;;;5.52;77.01;97454.50;5192325;27;42526;-81
2021/12/02 14:43:25;;;;;;;0.70;0.70;;;;;;;5.39;77.40;97452.66;5174166;27;42291;-80
2021/12/02 14:46:13;;;;;;;0.80;0.70;;;;;;;5.23;77.60;97444.06;5187961;27;40962;-80
2021/12/02 14:48:41;;;;;;;0.70;0.70;;;;;;;5.24;77.83;97461.50;5136398;27;41288;-77
2021/12/02 14:51:11;;;;;;;0.70;0.70;;;;;;;5.11;77.65;97450.09;5140722;27;41683;-77
2021/12/02 14:53:42;;;;;;;1.17;1.17;;;;;;;5.19;78.15;97468.00;5145233;27;40902;-82
2021/12/02 14:56:30;;;;;;;0.67;0.67;;;;;;;5.18;77.96;97472.41;5152417;27;38639;-78
2021/12/02 14:59:08;;;;;;;1.27;1.27;;;;;;;5.18;78.53;97475.03;5160003;27;40848;-84
2021/12/02 15:02:00;;;;;;;1.77;1.57;;;;;;;5.16;78.59;97482.16;5152884;27;42880;-81
2021/12/02 15:04:30;;;;;;;1.27;0.80;;;;;;;5.09;79.16;97472.09;5174081;27;41193;-79
2021/12/02 15:07:09;;;;;;;2.53;1.13;;;;;;;5.04;79.28;97491.63;5182880;27;39929;-80
2021/12/02 15:09:38;;;;;;;0.43;0.43;;;;;;;4.99;79.99;97487.59;5175862;27;42520;-80
2021/12/02 15:12:12;;;;;;;0.60;0.60;;;;;;;4.82;79.88;97483.38;5177209;27;43678;-82
2021/12/02 15:14:44;;;;;;;0.70;0.67;;;;;;;4.86;80.17;97508.47;5155525;27;41619;-80
2021/12/02 15:17:13;;;;;;;0.50;0.50;;;;;;;4.77;79.92;97497.72;5164909;27;38996;-80
2021/12/02 15:19:46;;;;;;;0.60;0.50;;;;;;;4.73;79.99;97511.94;5176190;27;42026;-79
2021/12/02 15:22:24;;;;;;;0.57;0.57;;;;;;;4.66;79.79;97511.47;5159342;27;41828;-79
2021/12/02 15:24:52;;;;;;;0.50;0.50;;;;;;;4.62;79.92;97505.56;5175643;27;41495;-79
2021/12/02 15:27:19;;;;;;;0.60;0.47;;;;;;;4.69;80.01;97530.50;5170150;27;38947;-81
2021/12/02 15:29:52;;;;;;;0.60;0.60;;;;;;;4.60;80.22;97523.16;5174560;27;42051;-81
2021/12/02 15:32:20;;;;;;;0.60;0.60;;;;;;;4.64;80.08;97529.91;5175993;27;43588;-80
2021/12/02 15:34:48;;;;;;;0.70;0.60;;;;;;;4.38;79.96;97503.56;5160433;27;41177;-81
2021/12/02 15:37:16;;;;;;;0.70;0.70;;;;;;;4.50;80.19;97532.53;5158392;27;39769;-82
2021/12/02 15:39:43;;;;;;;0.57;0.57;;;;;;;4.47;80.35;97553.66;5195672;27;41076;-79
2021/12/02 15:42:11;;;;;;;1.30;0.93;;;;;;;4.30;80.33;97540.72;5195047;27;42910;-83
2021/12/02 15:44:40;;;;;;;0.83;0.67;;;;;;;4.27;80.57;97569.72;5177576;27;41294;-79
2021/12/02 15:47:13;;;;;;;0.97;0.87;;;;;;;4.14;80.61;97566.09;5176322;27;39895;-80
2021/12/02 15:49:48;;;;;;;1.83;0.90;;;;;;;4.10;80.64;97575.06;5176681;27;42645;-80
2021/12/02 15:52:16;;;;;;;0.60;0.60;;;;;;;4.01;80.75;97586.06;5189597;27;42898;-80
